Weather observations for the past three days for
Burlington Municipal Airport
Imperial (Metric)
Date Time (cdt) Wind (mph) Vis. (mi.) Weather Sky Cond. Temperature (ºF) Relative Humidity Wind Chill (°F) Heat Index (°F) Pressure Precipitation (in)
Air Dwpt 6 hour altimeter (in) sea level (mb) 1 hr 3 hr 6 hr
Max. Min.
09 11:35 W 12 G 17 10.00 Overcast OVC100 64.6 33.1 31% 29.64 0.0
09 11:15 W 9 G 16 10.00 Overcast OVC100 64.2 35.1 34% 29.65 0.0
09 10:55 W 12 10.00 Mostly Cloudy BKN110 63.7 36 36% 29.65 0.0
09 10:35 W 8 10.00 Partly Cloudy SCT120 64.4 39.2 40% 29.64 0.0
09 10:15 SW 9 10.00 Partly Cloudy SCT120 64 39.9 41% 29.63 0.0
09 09:55 W 8 10.00 Fair CLR 61.7 40.5 46% 29.63 0.0
09 09:35 W 7 10.00 Fair CLR 61.5 41.4 48% 29.63 0.0
09 09:15 W 7 10.00 Fair CLR 60.4 41.9 51% 29.62 0.0
09 08:55 W 8 10.00 Fair CLR 60.1 42.3 52% 29.61 0.0
09 08:35 W 7 10.00 Fair CLR 59.5 43.7 56% 29.62 0.0
09 08:15 W 8 10.00 Fair CLR 58.5 45.3 62% 29.62 0.0
09 07:55 W 7 10.00 Fair CLR 57.9 47.1 67% 29.61 0.0
09 07:35 SW 8 10.00 Fair CLR 56.5 48.4 74% 29.61 0.0
09 07:15 W 7 10.00 Fair CLR 55.4 48.2 77% 29.62 0.0
09 06:55 SW 12 10.00 Fair CLR 54.1 48.4 55.6 52.2 81% 29.6 0.0
09 06:35 SW 10 10.00 Partly Cloudy SCT100 53.1 47.8 83% 29.6 0.0
09 06:15 SW 10 10.00 Mostly Cloudy BKN100 52.9 47.7 83% 29.6 0.0
09 05:55 SW 9 10.00 Mostly Cloudy BKN100 52.7 47.5 83% 29.59 0.0
09 05:35 SW 10 10.00 Fair CLR 52.3 47.3 83% 29.58 0.0
09 05:15 SW 12 10.00 Partly Cloudy SCT100 52.7 47.5 83% 29.58 0.0
09 04:55 SW 10 10.00 Mostly Cloudy BKN110 53.2 47.5 81% 29.59 0.0
09 04:35 SW 13 G 20 10.00 Mostly Cloudy BKN110 53.6 47.5 80% 29.59 0.0
09 04:15 SW 13 10.00 Partly Cloudy SCT110 53.2 47.5 81% 29.59 0.0
09 03:55 SW 10 10.00 Partly Cloudy SCT110 53.2 47.3 80% 29.59 0.0
09 03:35 SW 13 10.00 Partly Cloudy SCT110 53.6 47.3 79% 29.59 0.0
09 02:55 SW 12 10.00 Partly Cloudy SCT110 53.2 47.5 81% 29.6 0.0
09 02:35 SW 12 G 16 10.00 Fair CLR 53.2 47.5 81% 29.6 0.0
09 02:15 SW 13 10.00 Fair CLR 54 47.7 79% 29.6 0.0
09 01:55 SW 13 10.00 Fair CLR 54.5 47.7 78% 29.61 0.0
09 01:35 S 14 10.00 Partly Cloudy SCT120 54.7 47.3 76% 29.62 0.0
09 01:15 SW 10 10.00 Partly Cloudy SCT120 55 46.6 73% 29.63 0.0
09 00:55 SW 12 10.00 Partly Cloudy SCT120 55.4 45.7 65.1 50.5 70% 29.64 0.0
09 00:35 SW 10 10.00 Partly Cloudy SCT120 55.6 44.2 66% 29.64 0.0
09 00:15 SW 10 10.00 Partly Cloudy SCT120 54.5 42.1 63% 29.65 0.0
08 23:55 SW 9 10.00 Fair CLR 53.8 40.6 61% 29.65 0.0
08 23:35 S 9 10.00 Fair CLR 53.6 41.2 63% 29.65 0.0
08 23:15 S 8 10.00 Fair CLR 51.4 42.3 71% 29.65 0.0
08 22:50 S 6 10.00 Fair CLR 52 43.3 73% 29.65 0.0
08 22:35 Calm 10.00 Fair CLR 50.5 43.2 76% 29.65 0.0
08 22:15 S 3 10.00 Fair CLR 52 43.2 72% 29.66 0.0
08 21:55 S 5 10.00 Fair CLR 52.9 43 69% 29.66 0.0
08 21:35 Calm 10.00 Fair CLR 53.6 42.3 66% 29.67 0.0
08 21:15 S 6 10.00 Partly Cloudy SCT120 53.6 41.5 64% 29.67 0.0
08 20:55 Calm 10.00 Fair CLR 54.3 40.5 60% 29.67 0.0
08 20:35 S 3 10.00 Fair CLR 55.4 39.6 55% 29.67 0.0
08 20:15 S 3 10.00 Fair CLR 56.1 39.2 53% 29.68 0.0
08 19:35 SE 9 10.00 Fair CLR 59.5 38.5 46% 29.68 0.0
08 19:15 SE 6 G 16 10.00 Fair CLR 61.3 37.4 41% 29.68 0.0
08 18:55 S 3 10.00 Partly Cloudy SCT100 65.3 32.9 68.5 63 30% 29.68 0.0
08 18:35 SW 5 10.00 Partly Cloudy SCT110 65.7 31.1 28% 29.68 0.0
08 18:15 SW 6 10.00 Partly Cloudy SCT095 65.5 29.7 26% 29.69 0.0
08 17:55 W 6 10.00 Partly Cloudy SCT095 66.2 28.9 25% 29.69 0.0
08 17:15 SW 10 G 16 10.00 Partly Cloudy SCT095 68.5 28 22% 29.69 0.0
08 16:55 W 8 G 17 10.00 Partly Cloudy SCT095 68.2 27.3 22% 29.7 0.0
08 16:35 SW 8 G 22 10.00 Partly Cloudy SCT120 66.9 27.9 23% 29.7 0.0
08 16:15 W 10 G 16 10.00 Partly Cloudy SCT120 65.5 25.3 22% 29.7 0.0
08 15:55 W 8 10.00 Fair CLR 68 26.4 21% 29.72 0.0
08 15:35 SW 8 G 17 10.00 Fair CLR 67.1 26.1 21% 29.72 0.0
08 15:15 SW 13 10.00 Fair CLR 67.5 27.3 22% 29.73 0.0
08 14:55 S 6 G 9 10.00 Fair CLR 66.4 27.7 23% 29.74 0.0
08 14:35 SW 9 10.00 Fair CLR 66.7 28.4 24% 29.75 0.0
08 14:15 SW 12 G 18 10.00 Fair CLR 66.4 26.4 22% 29.76 0.0
08 13:55 SW 8 10.00 Fair CLR 64.9 25.9 23% 29.77 0.0
08 13:35 SW 6 10.00 Fair CLR 64.9 25.9 23% 29.77 0.0
08 13:15 W 3 10.00 Fair CLR 65.1 27.7 24% 29.78 0.0
08 12:55 SW 5 10.00 Fair CLR 63.5 24.4 63.7 34.2 23% 29.79 0.0
08 12:35 SW 9 10.00 Fair CLR 62.6 21.9 21% 29.8 0.0
08 12:15 S 5 10.00 Fair CLR 62.2 23.9 23% 29.8 0.0
08 11:55 SW 7 7.00 Fair CLR 62.4 23.2 22% 29.82 0.0
08 11:35 S 5 10.00 Fair CLR 61.2 24.3 24% 29.82 0.0
08 11:15 Calm 10.00 Fair CLR 60.3 25 26% 29.83 0.0
08 10:55 W 3 10.00 Fair CLR 60.8 26.2 27% 29.83 0.0
08 10:35 S 5 10.00 Fair CLR 60.3 25.5 26% 29.84 0.0
08 10:15 Calm 10.00 Fair CLR 59.4 25.3 27% 29.84 0.0
08 09:55 S 3 10.00 Fair CLR 58.8 28 31% 29.84 0.0
08 09:35 Calm 10.00 Fair CLR 58.5 29.3 33% 29.84 0.0
08 09:15 S 3 10.00 Fair CLR 56.8 32 39% 29.84 0.0
08 08:55 Calm 10.00 Fair CLR 54 40.1 60% 29.85 0.0
08 08:15 Calm 10.00 Fair CLR 46.6 39.9 78% 29.86 0.0
08 07:35 Calm 10.00 Fair CLR 39.9 36.7 88% 29.86 0.0
08 07:15 SW 3 10.00 Fair CLR 36.1 34 92% 29.86 0.0
08 06:55 Calm 10.00 Fair CLR 34.2 32.4 35.4 29.3 93% 29.86 0.0
08 06:30 Calm 5.00 Fair CLR 32 30.9 96% 29.86 0.0
08 06:15 Calm 4.00 Fair CLR 31.5 30.4 96% 29.86 0.0
08 05:55 Calm 1.25 Sky Obscured VV007 30.6 29.7 96% 29.85 0.0
08 05:35 Calm 3.00 Fair CLR 29.5 28 94% 29.85 0.0
08 05:15 Calm 7.00 Fair CLR 31.1 29.8 95% 29.85 0.0
08 04:55 Calm 10.00 Fair CLR 30.9 29.7 95% 29.86 0.0
08 04:35 Calm 7.00 Fair CLR 31.8 30.7 96% 29.86 0.0
08 04:15 Calm 10.00 Fair CLR 31.6 30.2 94% 29.86 0.0
08 03:55 Calm 7.00 Fair CLR 31.8 30.4 94% 29.86 0.0
08 03:35 Calm 7.00 Fair CLR 32.7 31.6 96% 29.86 0.0
08 03:15 Calm 10.00 Fair CLR 32.2 31.1 96% 29.87 0.0
08 02:35 Calm 10.00 Fair CLR 32 30.7 95% 29.87 0.0
08 02:15 Calm 10.00 Fair CLR 32.2 31.6 98% 29.87 0.0
08 01:55 Calm 10.00 Fair CLR 33.1 31.6 94% 29.88 0.0
08 01:35 Calm 10.00 Fair CLR 33.1 31.5 94% 29.89 0.0
08 01:15 S 3 10.00 Fair CLR 33.8 32.4 94% 29.89 0.0
08 00:55 Calm 10.00 Fair CLR 33.3 31.5 52.7 33.3 93% 29.89 0.0
08 00:35 Calm 10.00 Fair CLR 34.2 31.8 91% 29.89 0.0
08 00:15 Calm 10.00 Fair CLR 34 31.8 92% 29.89 0.0
07 23:55 Calm 10.00 Fair CLR 34.3 32 91% 29.88 0.0
07 23:35 Calm 10.00 Fair CLR 35.4 32.2 88% 29.88 0.0
07 23:15 Calm 10.00 Fair CLR 34.9 32 89% 29.88 0.0
07 22:55 N 3 10.00 Fair CLR 37 32.5 84% 29.87 0.0
07 22:35 Calm 10.00 Fair CLR 39.4 33.6 80% 29.87 0.0
07 21:55 NE 3 10.00 Fair CLR 40.8 34 77% 29.86 0.0
07 21:35 E 3 10.00 Fair CLR 42.1 34.2 74% 29.86 0.0
07 21:15 E 5 10.00 Fair CLR 42.8 34.2 72% 41 29.86 0.0
07 20:55 E 6 10.00 Fair CLR 44.4 34.7 69% 42 29.85 0.0
07 20:35 E 8 10.00 Fair CLR 45.3 35.6 69% 42 29.84 0.0
07 20:15 E 6 10.00 Fair CLR 46.8 36.7 68% 44 29.83 0.0
07 19:55 E 6 10.00 Fair CLR 48.4 37.8 67% 46 29.82 0.0
07 19:35 E 5 10.00 Fair CLR 50.4 37.9 63% 29.81 0.0
07 19:15 NE 6 10.00 Fair CLR 51.8 37.8 59% 29.81 0.0
07 18:55 N 6 10.00 Partly Cloudy SCT085 52.7 38.3 60.8 48.4 58% 29.81 0.0
07 18:35 SE 3 10.00 Partly Cloudy SCT095 52.2 38.5 60% 29.8 0.0
07 18:15 SE 7 10.00 Fair CLR 52.9 37.9 57% 29.8 0.0
07 17:55 SE 7 10.00 Partly Cloudy SCT090 54.3 39.7 58% 29.81 0.0
07 17:35 E 7 10.00 Partly Cloudy SCT050 SCT065 SCT070 53.4 39.6 60% 29.81 0.0
07 17:15 E 7 10.00 Mostly Cloudy SCT038 SCT050 BKN085 52.7 40.8 64% 29.81 0.0
07 16:55 E 5 10.00 Partly Cloudy SCT060 SCT080 50.7 39 64% 29.82 0.0
07 16:35 E 6 10.00 Mostly Cloudy SCT047 SCT060 BKN090 49.6 38.7 66% 48 29.82 0.0
07 16:15 SE 9 10.00 Overcast SCT043 BKN060 OVC070 48.9 39.4 70% 45 29.82 0.0
07 15:55 E 12 10.00 Overcast SCT040 BKN060 OVC070 48.9 36 61% 45 29.82 0.0
07 15:35 NE 10 7.00 Overcast SCT039 SCT047 OVC060 50.9 36.1 57% 29.82 0.0
07 15:15 N 12 G 16 10.00 Overcast OVC070 53.8 32.9 45% 29.82 0.0
07 14:35 SW 8 G 25 10.00 Partly Cloudy SCT070 SCT110 59.9 28.8 31% 29.82 0.0
07 14:15 SW 8 10.00 Fair CLR 59.7 30.2 33% 29.83 0.0
07 13:55 SW 10 G 16 10.00 Partly Cloudy SCT070 SCT095 58.8 30.2 34% 29.84 0.0
07 13:35 SW 10 G 17 10.00 Mostly Cloudy SCT070 BKN095 BKN110 58.8 28.4 31% 29.86 0.0
07 13:15 SW 8 G 20 10.00 Mostly Cloudy SCT046 SCT060 BKN065 58.5 28 31% 29.86 0.0
07 12:55 SW 7 G 21 10.00 Overcast SCT045 OVC070 54.1 27.1 56.5 35.8 35% 29.88 0.0
07 12:15 SW 12 G 16 10.00 Partly Cloudy SCT065 SCT100 SCT120 56.1 28 34% 29.89 0.0
07 11:55 S 7 G 16 10.00 Fair CLR 55.8 27.9 34% 29.89 0.0
07 11:35 SW 10 G 17 10.00 Fair CLR 56.1 28.8 35% 29.9 0.0
07 10:50 SW 6 10.00 Fair CLR 52 26.2 37% 29.92 0.0
07 10:35 SW 8 10.00 Fair CLR 50.9 26.6 39% 29.93 0.0
07 10:15 SW 6 10.00 Fair CLR 50.2 26.6 40% 29.94 0.0
07 09:55 SW 8 10.00 Fair CLR 50.2 26.6 40% 29.95 0.0
07 09:35 SW 6 10.00 Partly Cloudy SCT090 48 26.4 43% 46 29.96 0.0
07 09:15 SW 5 10.00 Mostly Cloudy BKN075 BKN100 46.2 26.4 46% 45 29.97 0.0
07 08:55 SW 5 10.00 Overcast SCT080 SCT085 OVC100 45.1 26.2 48% 43 29.97 0.0
07 08:35 SW 7 10.00 Overcast BKN065 BKN075 OVC100 44.1 28.9 55% 41 29.97 0.0
07 08:15 SW 8 10.00 Overcast BKN070 BKN080 OVC100 42.3 28.2 58% 38 29.98 0.0
07 07:55 SW 8 10.00 Overcast SCT070 OVC095 41.2 27.7 59% 37 29.98 0.0
07 07:35 SW 3 10.00 Overcast OVC095 39.4 29.5 68% 29.98 0.0
07 07:15 Calm 10.00 Mostly Cloudy SCT070 BKN080 BKN100 37 29.3 74% 29.97 0.0
07 06:55 SW 5 10.00 Overcast BKN070 OVC090 35.6 28.8 37.6 29.1 76% 32 29.97 0.0
07 06:35 SW 3 10.00 Mostly Cloudy SCT080 BKN090 34.3 28.2 78% 29.96 0.0
07 05:55 SW 3 10.00 Fair CLR 29.7 25.9 86% 29.96 0.0
07 05:35 SW 3 10.00 Fair CLR 31.6 27.3 84% 29.96 0.0
07 05:15 Calm 10.00 Fair CLR 29.8 25.9 85% 29.96 0.0
07 04:55 SW 3 10.00 Fair CLR 29.7 25.3 84% 29.96 0.0
07 04:35 Calm 10.00 Fair CLR 31.6 26.1 80% 29.96 0.0
07 04:15 SW 3 10.00 Fair CLR 32 25.7 78% 29.96 0.0
07 03:55 Calm 10.00 Fair CLR 32.4 26.8 80% 29.96 0.0
07 03:35 Calm 10.00 Fair CLR 32.2 26.4 79% 29.96 0.0
07 03:15 Calm 10.00 Fair CLR 32.4 26.6 79% 29.96 0.0
07 02:55 SW 3 10.00 Fair CLR 32 26.6 80% 29.96 0.0
07 02:35 S 3 10.00 Fair CLR 32.7 26.4 78% 29.97 0.0
07 02:15 SW 3 10.00 Fair CLR 32.9 27.3 80% 29.97 0.0
07 01:55 Calm 10.00 Fair CLR 32.2 27.5 83% 29.97 0.0
07 01:35 Calm 10.00 Fair CLR 34.2 26.2 73% 29.97 0.0
07 01:15 Calm 10.00 Fair CLR 35.4 26.1 69% 29.98 0.0
07 00:55 W 3 10.00 Fair CLR 37.8 24.6 50 35.4 59% 29.98 0.0
07 00:35 W 3 10.00 Fair CLR 37.9 24.8 59% 29.99 0.0
07 00:15 W 3 10.00 Fair CLR 37.2 25.3 62% 29.99 0.0
06 23:35 Calm 10.00 Fair CLR 35.8 27.9 73% 29.99 0.0
06 23:15 Calm 10.00 Fair CLR 36.5 25.2 64% 29.98 0.0
06 22:55 Calm 10.00 Fair CLR 39.2 25.3 58% 29.99 0.0
06 22:35 NW 3 10.00 Fair CLR 37.8 26.4 64% 29.99 0.0
06 22:15 W 5 10.00 Fair CLR 38.5 26.2 61% 36 29.99 0.0
06 21:55 W 5 10.00 Fair CLR 40.5 25.9 56% 38 29.99 0.0
06 21:35 W 6 10.00 Fair CLR 42.8 25.2 50% 40 29.99 0.0
06 20:55 W 6 10.00 Partly Cloudy SCT060 43.9 25.2 48% 41 29.97 0.0
06 20:35 W 7 10.00 Fair CLR 45.1 25.2 46% 42 29.97 0.0
06 20:15 W 8 10.00 Partly Cloudy SCT060 46 24.8 43% 42 29.96 0.0
06 19:55 W 8 10.00 Mostly Cloudy BKN065 BKN070 47.1 25.2 42% 44 29.95 0.0
06 19:35 W 9 10.00 Mostly Cloudy BKN065 48.2 25.7 42% 45 29.95 0.0
06 19:15 W 8 G 18 10.00 Mostly Cloudy SCT065 BKN075 49.3 25.5 40% 46 29.94 0.0
06 18:55 W 13 G 17 10.00 Overcast SCT065 OVC075 50 25.9 54.7 50 39% 46 29.94 0.0
06 18:35 W 12 G 16 10.00 Overcast SCT065 OVC075 50.5 25.3 37% 29.94 0.0
06 18:15 W 9 10.00 Overcast BKN075 OVC085 51.1 25.3 37% 29.93 0.0
06 17:55 NW 15 G 20 10.00 Overcast OVC075 51.3 25.9 37% 29.93 0.0
06 17:35 W 10 10.00 Overcast OVC075 51.4 25.9 37% 29.93 0.0
06 17:15 W 13 10.00 Overcast SCT065 OVC085 51.8 25.7 36% 29.92 0.0
06 16:55 NW 10 G 20 10.00 Overcast SCT065 OVC075 52 26.2 37% 29.92 0.0
06 16:35 NW 13 10.00 Overcast SCT075 OVC080 52 26.2 37% 29.92 0.0
06 16:15 W 8 10.00 Overcast OVC075 52.3 25.7 36% 29.91 0.0
06 15:55 W 14 G 21 10.00 Overcast SCT065 OVC075 53.8 26.4 35% 29.92 0.0
06 15:35 W 10 G 17 10.00 Overcast BKN065 OVC075 53.4 25.2 33% 29.91 0.0
06 15:15 W 9 G 16 10.00 Overcast BKN065 OVC075 53.6 26.1 34% 29.92 0.0
06 14:55 NW 9 G 16 10.00 Overcast BKN065 OVC075 53.1 26.1 35% 29.92 0.0
06 14:35 NW 9 10.00 Overcast SCT070 OVC075 53.6 25.3 33% 29.92 0.0
06 14:15 W 10 G 18 10.00 Overcast OVC070 54.7 25.5 32% 29.92 0.0
06 13:55 W 10 10.00 Overcast OVC070 54.3 24.6 32% 29.92 0.0
06 13:35 W 10 10.00 Overcast OVC070 53.6 26.4 35% 29.92 0.0
06 13:15 W 8 G 16 10.00 Overcast OVC070 52.7 25 34% 29.92 0.0
06 12:55 W 6 10.00 Overcast OVC070 52.9 26.1 53.6 36.1 35% 29.92 0.0
06 12:35 W 9 10.00 Overcast SCT070 OVC075 53.1 24.1 32% 29.93 0.0
06 12:15 SW 8 10.00 Overcast OVC070 52.9 24.3 33% 29.93 0.0
06 11:55 W 12 10.00 Overcast OVC070 52.3 24.8 34% 29.93 0.0
Date Time (cdt) Wind (mph) Vis. (mi.) Weather Sky Cond. Air Dwpt Max. Min. Relative Humidity Wind Chill (°F) Heat Index (°F) altimeter (in) sea level (mb) 1 hr 3 hr 6 hr
6 hour
Temperature (ºF) Pressure Precipitation (in)